Time;durP1;ratioP1;P1;durP2;ratioP2;P2;SDS_P1;SDS_P2;PMS_P1;PMS_P2;Temp;Humidity;BMP_temperature;BMP_pressure;BME280_temperature;BME280_humidity;BME280_pressure;Samples;Min_cycle;Max_cycle;Signal;HPM_P1;HPM_P2
2020/12/13 00:02:10;;;;;;;49.55;24.83;;;8.00;99.90;;;;;;4893358;29;20079;-91
2020/12/13 00:04:37;;;;;;;46.95;22.85;;;8.00;99.90;;;;;;4851829;29;20104;-89
2020/12/13 00:07:06;;;;;;;43.00;23.63;;;8.00;99.90;;;;;;4884279;29;20021;-90
2020/12/13 00:09:36;;;;;;;48.05;24.90;;;8.00;99.90;;;;;;4899493;29;20097;-90
2020/12/13 00:12:24;;;;;;;47.70;25.05;;;8.00;99.90;;;;;;4896583;29;20089;-91
2020/12/13 00:15:21;;;;;;;45.60;22.67;;;7.90;99.90;;;;;;4910248;29;20056;-88
2020/12/13 00:17:49;;;;;;;55.35;25.30;;;8.00;99.90;;;;;;4896961;29;20048;-89
2020/12/13 00:20:17;;;;;;;47.97;23.95;;;8.00;99.90;;;;;;4897731;29;20461;-89
2020/12/13 00:22:43;;;;;;;41.13;23.45;;;8.00;99.90;;;;;;4900165;29;20055;-88
2020/12/13 00:25:13;;;;;;;44.53;22.25;;;8.00;99.90;;;;;;4921227;29;20047;-89
2020/12/13 00:27:40;;;;;;;43.05;23.02;;;8.00;99.90;;;;;;4900370;29;20445;-89
2020/12/13 00:30:07;;;;;;;42.63;23.02;;;8.10;99.90;;;;;;4927963;29;20048;-89
2020/12/13 00:32:35;;;;;;;48.25;24.13;;;8.10;99.90;;;;;;4898851;29;20036;-90
2020/12/13 00:35:03;;;;;;;41.38;22.52;;;8.10;99.90;;;;;;4917768;28;20042;-89
2020/12/13 00:37:29;;;;;;;45.35;23.00;;;8.10;99.90;;;;;;4948808;28;20027;-90
2020/12/13 00:39:56;;;;;;;50.30;23.52;;;8.10;99.90;;;;;;4936470;29;20178;-90
2020/12/13 00:42:25;;;;;;;44.00;23.42;;;8.10;99.90;;;;;;4938464;29;20020;-90
2020/12/13 00:44:53;;;;;;;42.33;22.40;;;8.10;99.90;;;;;;4942260;28;20107;-90
2020/12/13 00:47:19;;;;;;;42.30;21.73;;;8.10;99.90;;;;;;4929842;29;20023;-90
2020/12/13 00:49:45;;;;;;;37.88;20.80;;;8.10;99.90;;;;;;4936555;28;20020;-90
2020/12/13 00:52:11;;;;;;;42.20;21.63;;;8.10;99.90;;;;;;4935633;28;20163;-90
2020/12/13 00:54:37;;;;;;;42.20;21.30;;;8.20;99.90;;;;;;4909139;29;20084;-88
2020/12/13 00:57:04;;;;;;;44.80;22.58;;;8.20;99.90;;;;;;4951430;29;20048;-89
2020/12/13 00:59:30;;;;;;;39.72;20.35;;;8.20;99.90;;;;;;4934685;29;20076;-89
2020/12/13 01:01:56;;;;;;;36.92;20.83;;;8.20;99.90;;;;;;4917638;29;20094;-88
2020/12/13 01:04:25;;;;;;;42.13;20.65;;;8.20;99.90;;;;;;4924745;29;20048;-90
2020/12/13 01:06:51;;;;;;;35.83;19.85;;;8.20;99.90;;;;;;4937126;29;20047;-89
2020/12/13 01:09:19;;;;;;;40.33;20.08;;;8.20;99.90;;;;;;4928518;29;20060;-88
2020/12/13 01:11:48;;;;;;;40.67;21.98;;;8.20;99.90;;;;;;4927063;29;20031;-89
2020/12/13 01:14:14;;;;;;;33.33;20.17;;;8.20;99.90;;;;;;4941561;29;20039;-90
2020/12/13 01:16:40;;;;;;;38.30;20.60;;;8.20;99.90;;;;;;4887478;29;20033;-88
2020/12/13 01:19:06;;;;;;;36.97;22.38;;;8.20;99.90;;;;;;4844298;29;20657;-88
2020/12/13 01:21:31;;;;;;;45.15;21.73;;;8.10;99.90;;;;;;4841919;29;20038;-87
2020/12/13 01:24:01;;;;;;;35.67;18.77;;;8.20;99.90;;;;;;4842587;29;20069;-86
2020/12/13 01:26:27;;;;;;;43.33;21.42;;;8.10;99.90;;;;;;4846922;29;20046;-87
2020/12/13 01:28:57;;;;;;;38.78;21.38;;;8.10;99.90;;;;;;4867836;29;20038;-88
2020/12/13 01:31:26;;;;;;;45.90;23.35;;;8.20;99.90;;;;;;4853908;29;20046;-89
2020/12/13 01:33:57;;;;;;;41.90;21.77;;;8.20;99.90;;;;;;4868410;29;20249;-87
2020/12/13 01:36:26;;;;;;;38.70;20.08;;;8.10;99.90;;;;;;4873433;29;20089;-87
2020/12/13 01:38:53;;;;;;;43.17;21.92;;;8.10;99.90;;;;;;4850068;29;20131;-87
2020/12/13 01:41:29;;;;;;;40.85;21.20;;;8.10;99.90;;;;;;4864346;29;20030;-87
2020/12/13 01:44:02;;;;;;;41.35;20.88;;;8.10;99.90;;;;;;4848456;29;20037;-89
2020/12/13 01:46:33;;;;;;;38.05;21.08;;;8.10;99.90;;;;;;4840954;29;20045;-88
2020/12/13 01:49:08;;;;;;;34.08;17.15;;;8.10;99.90;;;;;;4907287;29;20430;-88
2020/12/13 01:54:28;;;;;;;42.75;22.60;;;8.10;99.90;;;;;;4934817;29;20091;-89
2020/12/13 01:57:01;;;;;;;39.70;20.30;;;8.20;99.90;;;;;;4901389;29;20044;-89
2020/12/13 01:59:32;;;;;;;39.70;22.23;;;8.20;99.90;;;;;;4896948;29;20112;-88
2020/12/13 02:02:05;;;;;;;;;;;8.20;99.90;;;;;;4867674;29;20048;-88
2020/12/13 02:04:34;;;;;;;39.80;19.38;;;8.20;99.90;;;;;;4890481;29;19895;-89
2020/12/13 02:07:03;;;;;;;48.55;22.40;;;8.20;99.90;;;;;;4901523;29;20036;-89
2020/12/13 02:09:34;;;;;;;39.72;22.45;;;8.20;99.90;;;;;;4888694;29;20040;-88
2020/12/13 02:12:05;;;;;;;40.67;22.90;;;8.20;99.90;;;;;;4888259;29;20055;-87
2020/12/13 02:14:32;;;;;;;46.17;22.38;;;8.10;99.90;;;;;;4896890;29;20040;-89
2020/12/13 02:17:03;;;;;;;39.92;20.77;;;8.10;99.90;;;;;;4887987;29;20025;-90
2020/12/13 02:19:32;;;;;;;45.17;22.58;;;8.20;99.90;;;;;;4914408;28;20020;-89
2020/12/13 02:22:09;;;;;;;43.40;22.90;;;8.10;99.90;;;;;;4921134;29;20172;-89
2020/12/13 02:24:34;;;;;;;42.28;22.17;;;8.10;99.90;;;;;;4906182;29;20029;-89
2020/12/13 02:27:11;;;;;;;49.95;24.58;;;8.10;99.90;;;;;;4903291;29;20081;-90
2020/12/13 02:29:37;;;;;;;48.33;25.33;;;8.10;99.90;;;;;;4903653;29;20036;-90
2020/12/13 02:32:05;;;;;;;40.63;22.55;;;8.10;99.90;;;;;;4904456;29;20035;-90
2020/12/13 02:34:32;;;;;;;44.63;23.80;;;8.10;99.90;;;;;;4920241;29;20035;-91
2020/12/13 02:36:58;;;;;;;39.28;21.48;;;8.10;99.90;;;;;;4904175;29;20036;-89
2020/12/13 02:39:27;;;;;;;44.50;24.17;;;8.10;99.90;;;;;;4894937;29;20032;-89
2020/12/13 02:42:03;;;;;;;42.45;22.60;;;8.10;99.90;;;;;;4898439;29;20028;-89
2020/12/13 02:44:31;;;;;;;41.58;22.45;;;8.20;99.90;;;;;;4876013;29;20118;-88
2020/12/13 02:47:01;;;;;;;47.28;25.38;;;8.20;99.90;;;;;;4911383;29;20043;-88
2020/12/13 02:49:27;;;;;;;44.20;23.65;;;8.20;99.90;;;;;;4894474;29;20100;-89
2020/12/13 02:51:53;;;;;;;39.42;22.52;;;8.20;99.90;;;;;;4887541;29;20359;-90
2020/12/13 02:54:25;;;;;;;46.10;24.38;;;8.20;99.90;;;;;;4915354;29;20036;-89
2020/12/13 02:56:51;;;;;;;42.08;24.60;;;8.20;99.90;;;;;;4908192;29;20206;-90
2020/12/13 02:59:21;;;;;;;39.72;22.13;;;8.20;99.90;;;;;;4903302;29;20148;-91
2020/12/13 03:01:47;;;;;;;44.08;24.98;;;8.20;99.90;;;;;;4915200;29;20059;-91
2020/12/13 03:04:12;;;;;;;43.22;22.00;;;8.30;99.90;;;;;;4903033;29;20104;-90
2020/12/13 03:06:39;;;;;;;38.42;21.95;;;8.20;99.90;;;;;;4882899;29;20155;-90
2020/12/13 03:09:06;;;;;;;37.95;21.85;;;8.20;99.90;;;;;;4845539;29;20045;-91
2020/12/13 03:11:40;;;;;;;39.42;21.25;;;8.20;99.90;;;;;;4881298;29;20789;-91
2020/12/13 03:14:09;;;;;;;39.45;22.23;;;8.20;99.90;;;;;;4882913;29;20041;-92
2020/12/13 03:16:35;;;;;;;40.65;21.95;;;8.10;99.90;;;;;;4905016;29;20501;-91
2020/12/13 03:19:01;;;;;;;37.85;21.85;;;8.20;99.90;;;;;;4902274;29;20024;-90
2020/12/13 03:21:30;;;;;;;37.42;21.60;;;8.10;99.90;;;;;;4921166;29;20104;-91
2020/12/13 03:23:59;;;;;;;33.65;19.02;;;8.20;99.90;;;;;;4913936;29;20039;-91
2020/12/13 03:26:27;;;;;;;38.25;20.73;;;8.20;99.90;;;;;;4917204;29;20052;-91
2020/12/13 03:28:54;;;;;;;36.90;19.48;;;8.20;99.90;;;;;;4924699;29;20104;-91
2020/12/13 03:31:20;;;;;;;31.05;20.05;;;8.20;99.90;;;;;;4912886;29;20337;-91
2020/12/13 03:33:47;;;;;;;35.28;19.65;;;8.20;99.90;;;;;;4912213;29;20149;-89
2020/12/13 03:36:14;;;;;;;31.92;19.50;;;8.20;99.90;;;;;;4922309;29;20035;-87
2020/12/13 03:38:46;;;;;;;34.67;20.25;;;8.20;99.90;;;;;;4961306;28;20037;-88
2020/12/13 03:41:43;;;;;;;32.72;19.38;;;8.10;99.90;;;;;;4961204;28;20027;-88
2020/12/13 03:44:13;;;;;;;42.17;21.13;;;8.10;99.90;;;;;;4967002;28;20082;-88
2020/12/13 03:46:41;;;;;;;32.95;19.95;;;8.20;99.90;;;;;;4974779;28;20103;-88
2020/12/13 03:49:07;;;;;;;32.13;19.38;;;8.20;99.90;;;;;;4976597;28;20031;-88
2020/12/13 03:51:39;;;;;;;31.42;19.05;;;8.20;99.90;;;;;;4949144;29;20107;-88
2020/12/13 03:54:06;;;;;;;33.95;18.88;;;8.10;99.90;;;;;;4969166;28;20035;-89
2020/12/13 03:56:33;;;;;;;27.05;16.30;;;8.10;99.90;;;;;;4941470;29;20038;-89
2020/12/13 03:58:59;;;;;;;33.03;17.20;;;8.10;99.90;;;;;;4960535;28;20023;-88
2020/12/13 04:01:25;;;;;;;35.83;20.10;;;8.20;99.90;;;;;;4963639;28;20098;-90
2020/12/13 04:03:52;;;;;;;32.92;18.58;;;8.10;99.90;;;;;;4952299;28;20035;-89
2020/12/13 04:06:19;;;;;;;31.58;18.60;;;8.10;99.90;;;;;;4974038;28;20039;-90
2020/12/13 04:08:45;;;;;;;31.05;18.15;;;8.20;99.90;;;;;;4939813;29;20038;-90
2020/12/13 04:11:18;;;;;;;31.83;19.20;;;8.10;99.90;;;;;;4925501;29;20081;-90
2020/12/13 04:13:47;;;;;;;28.52;16.40;;;8.20;99.90;;;;;;4937281;28;20097;-91
2020/12/13 04:16:12;;;;;;;33.90;18.13;;;8.10;99.90;;;;;;4921983;28;20055;-89
2020/12/13 04:18:42;;;;;;;30.10;16.58;;;8.10;99.90;;;;;;4911981;28;20131;-89
2020/12/13 04:21:08;;;;;;;28.98;17.40;;;8.10;99.90;;;;;;4910371;29;20032;-88
2020/12/13 04:23:33;;;;;;;29.65;17.77;;;8.10;99.90;;;;;;4957481;28;20043;-89
2020/12/13 04:26:00;;;;;;;29.38;16.92;;;8.10;99.90;;;;;;4957859;28;20052;-89
2020/12/13 04:28:29;;;;;;;29.75;17.20;;;8.10;99.90;;;;;;4946252;28;20060;-89
2020/12/13 04:30:55;;;;;;;27.67;15.43;;;8.10;99.90;;;;;;4943419;28;20047;-89
2020/12/13 04:33:21;;;;;;;29.23;15.63;;;8.10;99.90;;;;;;4895293;29;20041;-89
2020/12/13 04:35:49;;;;;;;26.63;14.77;;;8.10;99.90;;;;;;4878571;28;20033;-89
2020/12/13 04:38:16;;;;;;;25.15;14.23;;;8.10;99.90;;;;;;4890922;29;20065;-90
2020/12/13 04:40:42;;;;;;;21.98;13.30;;;8.10;99.90;;;;;;4883550;29;20037;-89
2020/12/13 04:43:08;;;;;;;24.63;13.27;;;8.10;99.90;;;;;;4930018;29;20047;-90
2020/12/13 04:45:36;;;;;;;24.38;13.98;;;8.20;99.90;;;;;;4910577;29;20032;-89
2020/12/13 04:48:09;;;;;;;21.85;13.02;;;8.20;99.90;;;;;;4909245;29;20067;-88
2020/12/13 04:50:38;;;;;;;22.00;13.02;;;8.10;99.90;;;;;;4850531;29;20049;-89
2020/12/13 04:53:08;;;;;;;22.15;13.27;;;8.10;99.90;;;;;;4896410;29;20037;-89
2020/12/13 04:55:55;;;;;;;19.45;11.98;;;8.10;99.90;;;;;;4916086;29;20025;-90
2020/12/13 04:58:25;;;;;;;21.77;13.30;;;8.10;99.90;;;;;;4904283;29;20032;-90
2020/12/13 05:00:57;;;;;;;18.15;10.50;;;8.20;99.90;;;;;;4897677;29;20036;-90
2020/12/13 05:03:26;;;;;;;17.02;10.85;;;8.10;99.90;;;;;;4896150;29;20040;-90
2020/12/13 05:05:58;;;;;;;17.90;11.55;;;8.10;99.90;;;;;;4887017;29;20135;-91
2020/12/13 05:08:25;;;;;;;16.80;10.85;;;8.10;99.90;;;;;;4892903;29;20048;-87
2020/12/13 05:10:53;;;;;;;16.23;10.10;;;8.10;99.90;;;;;;4906422;29;20076;-90
2020/12/13 05:13:25;;;;;;;16.30;10.20;;;8.10;99.90;;;;;;4889632;29;20092;-88
2020/12/13 05:15:50;;;;;;;16.25;10.90;;;8.10;99.90;;;;;;4885245;29;20053;-89
2020/12/13 05:18:17;;;;;;;14.93;9.90;;;8.10;99.90;;;;;;4899609;29;20119;-89
2020/12/13 05:20:44;;;;;;;16.88;9.85;;;8.10;99.90;;;;;;4886562;29;20033;-90
2020/12/13 05:23:13;;;;;;;18.33;10.90;;;8.10;99.90;;;;;;4900489;29;20057;-89
2020/12/13 05:25:41;;;;;;;18.05;10.90;;;8.00;99.90;;;;;;4901189;29;20706;-90
2020/12/13 05:28:10;;;;;;;17.63;10.63;;;8.00;99.90;;;;;;4892154;29;20430;-90
2020/12/13 05:30:44;;;;;;;16.20;11.43;;;8.10;99.90;;;;;;4900987;29;20055;-89
2020/12/13 05:35:53;;;;;;;19.17;11.73;;;8.00;99.90;;;;;;4899527;29;20176;-90
2020/12/13 05:38:21;;;;;;;26.65;11.95;;;8.00;99.90;;;;;;4895045;29;20043;-90
2020/12/13 05:40:52;;;;;;;22.88;12.18;;;7.90;99.90;;;;;;4932250;28;20093;-89
2020/12/13 05:43:22;;;;;;;21.27;12.80;;;7.90;99.90;;;;;;4980746;28;20428;-90
2020/12/13 05:51:58;;;;;;;19.92;13.52;;;8.00;99.90;;;;;;4972751;28;20045;-88
2020/12/13 05:53:57;;;;;;;21.20;13.75;;;7.90;99.90;;;;;;4956602;28;20054;-90
2020/12/13 05:56:23;;;;;;;19.95;12.20;;;7.90;99.90;;;;;;4946936;29;20077;-88
2020/12/13 05:58:52;;;;;;;22.25;14.15;;;7.90;99.90;;;;;;4956492;29;20023;-90
2020/12/13 06:01:25;;;;;;;19.80;12.80;;;7.90;99.90;;;;;;4954207;28;20435;-88
2020/12/13 06:03:55;;;;;;;23.13;13.38;;;7.90;99.90;;;;;;4909698;29;20043;-89
2020/12/13 06:06:24;;;;;;;20.30;13.75;;;7.90;99.90;;;;;;4959947;28;20062;-88
2020/12/13 06:09:16;;;;;;;24.00;12.75;;;7.90;99.90;;;;;;4942871;29;20039;-88
2020/12/13 06:11:48;;;;;;;20.08;12.73;;;7.90;99.90;;;;;;4956666;28;20038;-89
2020/12/13 06:14:20;;;;;;;22.48;13.07;;;7.80;99.90;;;;;;4932628;29;20157;-89
2020/12/13 06:16:47;;;;;;;22.40;13.18;;;7.80;99.90;;;;;;4888338;29;20097;-90
2020/12/13 06:19:17;;;;;;;23.13;12.88;;;7.70;99.90;;;;;;4933422;29;20151;-89
2020/12/13 06:21:46;;;;;;;24.65;13.07;;;7.70;99.90;;;;;;4935645;29;20024;-89
2020/12/13 06:24:12;;;;;;;25.88;14.02;;;7.70;99.90;;;;;;4920399;29;20103;-89
2020/12/13 06:26:40;;;;;;;24.20;14.23;;;7.70;99.90;;;;;;4903482;29;20385;-89
2020/12/13 06:29:06;;;;;;;25.17;13.93;;;7.70;99.90;;;;;;4930432;29;20042;-88
2020/12/13 06:31:37;;;;;;;22.77;13.93;;;7.70;99.90;;;;;;4936525;29;20051;-89
2020/12/13 06:34:04;;;;;;;31.45;14.10;;;7.80;99.90;;;;;;4923363;29;20040;-90
2020/12/13 06:36:32;;;;;;;25.75;14.40;;;7.70;99.90;;;;;;4939938;29;20174;-89
2020/12/13 06:39:07;;;;;;;25.65;14.70;;;7.60;99.90;;;;;;4929787;29;20044;-90
2020/12/13 06:41:35;;;;;;;23.25;13.75;;;7.60;99.90;;;;;;4929777;29;20108;-89
2020/12/13 06:44:07;;;;;;;23.60;14.07;;;7.60;99.90;;;;;;4919431;29;20446;-90
2020/12/13 06:46:41;;;;;;;24.92;15.10;;;7.60;99.90;;;;;;4966771;29;20085;-90
2020/12/13 06:49:17;;;;;;;25.02;14.68;;;7.60;99.90;;;;;;4929723;29;20058;-89
2020/12/13 06:51:45;;;;;;;21.90;14.50;;;7.60;99.90;;;;;;4957318;28;20082;-89
2020/12/13 06:54:17;;;;;;;27.23;14.55;;;7.60;99.90;;;;;;4971704;28;20057;-89
2020/12/13 06:56:50;;;;;;;23.00;15.70;;;7.60;99.90;;;;;;4965781;29;20094;-90
2020/12/13 06:59:21;;;;;;;26.85;14.02;;;7.50;99.90;;;;;;4969434;28;20030;-90
2020/12/13 07:01:47;;;;;;;24.15;14.15;;;7.50;99.90;;;;;;4945887;29;20480;-90
2020/12/13 07:04:46;;;;;;;30.10;15.73;;;7.50;99.90;;;;;;4950041;29;20143;-89
2020/12/13 07:07:25;;;;;;;25.92;14.73;;;7.40;99.90;;;;;;4922885;29;20144;-89
2020/12/13 07:09:52;;;;;;;29.35;16.08;;;7.40;99.90;;;;;;4922680;29;20043;-89
2020/12/13 07:12:18;;;;;;;24.88;15.73;;;7.30;99.90;;;;;;4938470;29;20024;-88
2020/12/13 07:14:46;;;;;;;35.85;17.10;;;7.30;99.90;;;;;;4923252;29;20036;-89
2020/12/13 07:17:18;;;;;;;27.08;16.33;;;7.30;99.90;;;;;;4937273;29;20031;-88
2020/12/13 07:19:44;;;;;;;28.05;16.17;;;7.30;99.90;;;;;;4939374;29;20016;-87
2020/12/13 07:22:18;;;;;;;27.52;16.25;;;7.30;99.90;;;;;;4938926;29;20044;-89
2020/12/13 07:24:44;;;;;;;27.05;16.75;;;7.30;99.90;;;;;;4922396;29;20039;-89
2020/12/13 07:27:14;;;;;;;27.38;15.20;;;7.30;99.90;;;;;;4921281;29;20024;-89
2020/12/13 07:29:40;;;;;;;27.55;16.55;;;7.30;99.90;;;;;;4954366;23;21240;-92
2020/12/13 07:32:11;;;;;;;38.85;17.95;;;7.20;99.90;;;;;;4973058;28;20121;-92
2020/12/13 07:34:40;;;;;;;25.23;14.90;;;7.20;99.90;;;;;;4980261;28;20033;-92
2020/12/13 07:37:06;;;;;;;28.50;15.45;;;7.20;99.90;;;;;;4980310;28;20098;-91
2020/12/13 07:39:39;;;;;;;33.97;17.45;;;7.20;99.90;;;;;;4967502;28;20476;-91
2020/12/13 07:42:15;;;;;;;28.58;15.50;;;7.20;99.90;;;;;;4974915;28;20023;-92
2020/12/13 07:44:41;;;;;;;27.63;14.48;;;7.20;99.90;;;;;;4975664;28;20030;-92
2020/12/13 07:47:09;;;;;;;34.45;16.30;;;7.20;99.90;;;;;;4963760;28;20084;-91
2020/12/13 07:49:35;;;;;;;25.45;14.82;;;7.20;99.90;;;;;;4964700;28;20090;-91
2020/12/13 07:52:02;;;;;;;30.27;16.05;;;7.20;99.90;;;;;;4965850;28;20120;-91
2020/12/13 07:54:32;;;;;;;27.52;15.27;;;7.20;99.90;;;;;;4950006;28;20026;-91
2020/12/13 07:57:15;;;;;;;28.63;15.23;;;7.20;99.90;;;;;;4981407;28;20027;-91
2020/12/13 07:59:54;;;;;;;28.38;15.63;;;7.20;99.90;;;;;;4976728;28;20023;-92
2020/12/13 08:02:21;;;;;;;26.42;15.60;;;7.20;99.90;;;;;;4982053;28;20085;-92
2020/12/13 08:05:07;;;;;;;27.90;14.80;;;7.20;99.90;;;;;;4984309;28;20148;-91
2020/12/13 08:07:33;;;;;;;44.30;21.52;;;7.20;99.90;;;;;;4980331;28;20023;-92
2020/12/13 08:09:58;;;;;;;34.25;18.42;;;7.20;99.90;;;;;;4979094;28;20057;-92
2020/12/13 08:12:38;;;;;;;41.60;20.00;;;7.20;99.90;;;;;;4995291;28;20102;-93
2020/12/13 08:15:13;;;;;;;36.63;19.30;;;7.20;99.90;;;;;;4993623;28;20097;-94
2020/12/13 08:17:43;;;;;;;29.67;18.88;;;7.20;99.90;;;;;;5000713;28;20026;-93
2020/12/13 08:20:11;;;;;;;33.08;18.77;;;7.20;99.90;;;;;;4989394;28;20027;-94
2020/12/13 08:22:38;;;;;;;28.02;17.20;;;7.20;99.90;;;;;;5006349;28;20095;-93
2020/12/13 08:25:10;;;;;;;30.35;17.52;;;7.20;99.90;;;;;;4991800;28;20030;-92
2020/12/13 08:27:39;;;;;;;34.30;18.92;;;7.30;99.90;;;;;;4968906;28;20019;-93
2020/12/13 08:30:08;;;;;;;30.45;18.40;;;7.30;99.90;;;;;;4969650;28;20043;-92
2020/12/13 08:32:36;;;;;;;29.42;16.83;;;7.30;99.90;;;;;;4964433;28;20050;-92
2020/12/13 08:35:17;;;;;;;26.60;17.02;;;7.30;99.90;;;;;;4963952;28;20105;-92
2020/12/13 08:38:12;;;;;;;23.52;13.43;;;7.40;99.90;;;;;;4969428;28;20069;-93
2020/12/13 08:40:45;;;;;;;27.15;15.68;;;7.40;99.90;;;;;;4962508;28;20034;-94
2020/12/13 08:43:20;;;;;;;29.20;15.50;;;7.40;99.90;;;;;;4974574;28;20018;-93
2020/12/13 08:45:59;;;;;;;31.30;17.20;;;7.50;99.90;;;;;;4979947;28;20041;-94
2020/12/13 08:48:28;;;;;;;26.98;15.55;;;7.60;99.90;;;;;;4985158;28;20038;-92
2020/12/13 08:51:05;;;;;;;23.38;15.02;;;7.70;99.90;;;;;;4953611;28;20038;-94
2020/12/13 08:53:32;;;;;;;25.40;15.02;;;7.70;99.90;;;;;;4966088;28;20047;-94
2020/12/13 08:56:02;;;;;;;26.23;14.68;;;7.90;99.90;;;;;;4969741;28;20046;-79
2020/12/13 08:58:27;;;;;;;27.77;15.38;;;7.90;99.90;;;;;;4969929;28;20316;-80
2020/12/13 09:01:04;;;;;;;24.23;14.90;;;8.00;99.90;;;;;;4978542;28;20030;-81
2020/12/13 09:03:30;;;;;;;28.23;14.38;;;8.00;99.90;;;;;;4970339;28;20085;-81
2020/12/13 09:05:55;;;;;;;24.67;13.63;;;8.10;99.90;;;;;;4968963;28;20030;-81
2020/12/13 09:08:26;;;;;;;22.15;14.00;;;8.10;99.90;;;;;;4988484;28;20038;-84
2020/12/13 09:10:54;;;;;;;21.50;13.35;;;8.20;99.90;;;;;;4984452;28;20030;-94
2020/12/13 09:13:22;;;;;;;25.02;13.25;;;8.20;99.90;;;;;;4972062;28;20025;-93
2020/12/13 09:15:47;;;;;;;23.33;13.25;;;8.20;99.90;;;;;;4988659;28;20023;-91
2020/12/13 09:18:13;;;;;;;20.85;12.05;;;8.20;99.90;;;;;;5096384;23;20346;-92
2020/12/13 09:20:40;;;;;;;19.55;9.88;;;8.30;99.90;;;;;;4949980;29;20050;-93
2020/12/13 09:23:07;;;;;;;17.35;10.68;;;8.30;99.90;;;;;;4950618;28;20027;-93
2020/12/13 09:25:42;;;;;;;16.00;10.65;;;8.30;99.90;;;;;;4967077;28;20027;-94
2020/12/13 09:28:09;;;;;;;20.20;10.25;;;8.30;99.90;;;;;;4968497;28;20024;-94
2020/12/13 09:30:35;;;;;;;18.63;9.55;;;8.40;99.90;;;;;;4930106;29;20461;-93
2020/12/13 09:33:03;;;;;;;13.55;7.57;;;8.40;99.90;;;;;;4916352;29;20028;-93
2020/12/13 09:35:30;;;;;;;15.18;8.93;;;8.40;99.90;;;;;;4943328;29;20031;-94
2020/12/13 09:37:59;;;;;;;13.77;8.85;;;8.40;99.90;;;;;;4936774;28;20031;-95
2020/12/13 09:40:25;;;;;;;14.57;8.45;;;8.50;99.90;;;;;;4950270;29;20031;-93
2020/12/13 09:42:52;;;;;;;11.55;7.32;;;8.50;99.90;;;;;;4943746;29;20023;-91
2020/12/13 09:45:17;;;;;;;13.40;7.35;;;8.50;99.90;;;;;;4941482;29;20031;-92
2020/12/13 09:47:43;;;;;;;11.60;6.85;;;8.50;99.90;;;;;;4933729;29;20063;-92
2020/12/13 09:50:09;;;;;;;12.63;7.22;;;8.60;99.90;;;;;;4919378;29;20324;-92
2020/12/13 09:52:35;;;;;;;9.25;5.97;;;8.60;99.90;;;;;;4932096;29;20035;-92
2020/12/13 09:55:04;;;;;;;7.82;5.43;;;8.70;99.90;;;;;;4937666;29;20090;-91
2020/12/13 09:57:30;;;;;;;12.15;6.88;;;8.70;99.90;;;;;;4934189;29;20024;-91
2020/12/13 10:00:05;;;;;;;11.40;6.55;;;8.70;99.90;;;;;;4953199;29;20033;-94
2020/12/13 10:02:31;;;;;;;8.70;5.28;;;8.60;99.90;;;;;;4921895;29;20027;-91
2020/12/13 10:04:57;;;;;;;8.85;5.53;;;8.70;99.90;;;;;;4924501;29;20087;-90
2020/12/13 10:10:18;;;;;;;9.30;5.35;;;8.70;99.90;;;;;;4915142;29;20123;-91
2020/12/13 10:12:50;;;;;;;11.43;6.18;;;8.70;99.90;;;;;;4907484;29;20048;-96
2020/12/13 10:23:15;;;;;;;9.85;5.45;;;8.90;99.90;;;;;;5561279;23;20062;-94
2020/12/13 10:28:16;;;;;;;10.88;4.55;;;9.00;99.90;;;;;;5660683;23;20022;-93
2020/12/13 10:43:41;;;;;;;6.15;4.28;;;9.30;99.90;;;;;;5696003;23;20250;-90
2020/12/13 10:46:08;;;;;;;7.18;4.47;;;9.30;99.90;;;;;;4961895;28;20039;-96
2020/12/13 10:51:45;;;;;;;8.38;5.15;;;9.30;99.90;;;;;;5030760;23;20059;-95
2020/12/13 11:24:07;;;;;;;7.23;3.20;;;9.90;99.90;;;;;;5583794;23;20321;31
2020/12/13 11:47:24;;;;;;;11.20;7.00;;;10.10;99.90;;;;;;3811457;23;20014;-91
2020/12/13 11:53:19;;;;;;;7.03;3.80;;;10.20;99.90;;;;;;5723145;23;20044;31
2020/12/13 11:55:56;;;;;;;;;;;;;;;;;;;;;
2020/12/13 12:06:19;;;;;;;7.95;3.72;;;9.60;99.90;;;;;;5323363;23;20061;-95
2020/12/13 12:11:39;;;;;;;4.28;2.42;;;9.40;99.90;;;;;;5075459;23;20056;-96
2020/12/13 12:14:10;;;;;;;7.05;2.53;;;9.50;99.90;;;;;;4936951;29;20118;-95
2020/12/13 12:16:43;;;;;;;3.72;1.55;;;9.60;99.90;;;;;;4934876;29;20039;-95
2020/12/13 12:19:10;;;;;;;4.10;1.63;;;9.70;99.90;;;;;;5383832;23;20063;-96
2020/12/13 12:21:43;;;;;;;5.78;2.58;;;9.80;99.90;;;;;;4938787;29;20038;-95
2020/12/13 12:32:18;;;;;;;6.70;2.85;;;9.90;99.90;;;;;;5307507;23;20055;-96
2020/12/13 12:40:01;;;;;;;6.93;3.50;;;9.70;99.90;;;;;;5103500;23;20081;-96
2020/12/13 12:46:09;;;;;;;5.85;2.75;;;9.70;99.90;;;;;;5133069;23;20086;-95
2020/12/13 13:09:57;;;;;;;5.82;1.80;;;10.00;99.90;;;;;;4872000;29;20033;-95
2020/12/13 14:16:16;;;;;;;5.03;1.95;;;8.80;99.90;;;;;;5751725;23;21360;-95
2020/12/13 14:24:25;;;;;;;3.92;2.35;;;8.80;99.90;;;;;;5704794;23;20063;-96
2020/12/13 14:38:21;;;;;;;4.30;1.92;;;8.70;99.90;;;;;;5215161;23;20059;-93
2020/12/13 14:43:32;;;;;;;8.38;2.13;;;8.50;99.90;;;;;;5100670;23;20055;-94
2020/12/13 14:46:24;;;;;;;4.07;1.60;;;8.50;99.90;;;;;;4954181;29;20031;-94
2020/12/13 14:48:51;;;;;;;5.20;1.98;;;8.50;99.90;;;;;;4970990;29;20102;-94
2020/12/13 14:51:25;;;;;;;4.32;2.10;;;8.40;99.90;;;;;;4950949;29;20055;-94
2020/12/13 14:53:51;;;;;;;2.00;1.50;;;8.40;99.90;;;;;;4960108;28;20024;-94
2020/12/13 14:56:23;;;;;;;6.13;2.25;;;8.30;99.90;;;;;;4962926;28;20099;-93
2020/12/13 14:58:51;;;;;;;4.82;2.28;;;8.20;99.90;;;;;;4905328;29;20047;-94
2020/12/13 15:01:21;;;;;;;7.25;1.98;;;8.10;99.90;;;;;;4906197;29;20051;-95
2020/12/13 15:03:47;;;;;;;5.30;2.22;;;8.10;99.90;;;;;;4906375;29;20036;-96
2020/12/13 15:06:26;;;;;;;6.65;2.30;;;8.00;99.90;;;;;;4905934;29;20036;-94
2020/12/13 15:08:58;;;;;;;3.22;1.83;;;8.00;99.90;;;;;;4890257;29;20024;-96
2020/12/13 15:11:45;;;;;;;4.47;1.80;;;7.90;99.90;;;;;;4889727;29;20016;-96
2020/12/13 15:17:06;;;;;;;10.18;3.33;;;7.70;99.90;;;;;;4960427;28;20042;-96
2020/12/13 16:21:11;;;;;;;14.82;4.82;;;6.40;99.90;;;;;;4972819;28;20039;-96
2020/12/13 16:31:52;;;;;;;8.50;2.92;;;6.40;99.90;;;;;;5251823;23;20093;-96
2020/12/13 16:34:20;;;;;;;6.32;3.90;;;6.40;99.90;;;;;;4949091;29;20074;-95
2020/12/13 16:39:41;;;;;;;12.50;5.13;;;6.30;99.90;;;;;;5171684;23;20080;-96
2020/12/13 16:42:13;;;;;;;5.93;3.22;;;6.50;99.90;;;;;;4894268;29;20096;-94
2020/12/13 16:44:46;;;;;;;9.25;5.10;;;6.40;99.90;;;;;;4896258;29;20045;-94
2020/12/13 16:47:55;;;;;;;12.27;4.80;;;6.40;99.90;;;;;;4910299;29;20058;-94
2020/12/13 16:54:33;;;;;;;7.68;3.33;;;6.40;99.90;;;;;;4936608;28;20036;-96
2020/12/13 16:57:15;;;;;;;10.55;3.20;;;6.50;99.90;;;;;;4919112;28;20045;-95
2020/12/13 17:13:21;;;;;;;6.93;3.75;;;6.40;99.90;;;;;;5100219;23;20066;-94
2020/12/13 17:16:02;;;;;;;;;;;;;;;;;;;;;
2020/12/13 17:18:35;;;;;;;7.68;3.78;;;6.40;99.90;;;;;;4977046;28;20051;-96
2020/12/13 17:21:02;;;;;;;10.98;4.85;;;6.40;99.90;;;;;;5171505;23;20055;-96
2020/12/13 17:29:47;;;;;;;9.88;3.70;;;6.20;99.90;;;;;;5797570;23;20055;-95
2020/12/13 17:45:48;;;;;;;10.27;3.65;;;6.50;99.90;;;;;;5387464;23;20152;-93
2020/12/13 17:56:11;;;;;;;6.57;3.33;;;6.70;99.90;;;;;;4988148;28;20054;-96
2020/12/13 17:59:04;;;;;;;6.88;4.30;;;6.70;99.90;;;;;;4975742;28;20038;-96
2020/12/13 18:01:47;;;;;;;11.52;5.05;;;6.70;99.90;;;;;;4994076;28;20022;-96
2020/12/13 18:04:15;;;;;;;8.30;3.92;;;6.60;99.90;;;;;;4937434;28;20028;-94
2020/12/13 18:06:41;;;;;;;10.93;5.10;;;6.60;99.90;;;;;;4943141;28;20096;-94
2020/12/13 18:09:09;;;;;;;10.63;4.70;;;6.60;99.90;;;;;;4942838;28;20036;-96
2020/12/13 18:11:40;;;;;;;11.77;4.32;;;6.60;99.90;;;;;;4897525;29;20016;-94
2020/12/13 18:14:09;;;;;;;8.65;4.38;;;6.60;99.90;;;;;;4923163;29;20151;-94
2020/12/13 18:16:35;;;;;;;10.82;4.78;;;6.50;99.90;;;;;;4901868;29;20096;-95
2020/12/13 18:19:07;;;;;;;11.27;5.32;;;6.60;99.90;;;;;;4901738;29;20111;-95
2020/12/13 18:21:54;;;;;;;12.43;4.50;;;6.60;99.90;;;;;;4895858;29;20136;-95
2020/12/13 18:24:36;;;;;;;10.00;4.47;;;6.60;99.90;;;;;;4851069;29;20145;-95
2020/12/13 18:27:02;;;;;;;7.13;4.07;;;6.50;99.90;;;;;;4791613;29;20037;-95
2020/12/13 18:29:28;;;;;;;9.25;3.80;;;6.50;99.90;;;;;;4838334;29;20046;-96
2020/12/13 18:31:56;;;;;;;9.45;3.72;;;6.50;99.90;;;;;;4833926;29;20053;-96
2020/12/13 18:34:23;;;;;;;13.15;4.38;;;6.50;99.90;;;;;;4856888;29;20041;-95
2020/12/13 18:36:49;;;;;;;12.05;4.05;;;6.40;99.90;;;;;;4851168;29;20448;-95
2020/12/13 18:39:23;;;;;;;6.60;3.38;;;6.50;99.90;;;;;;4855017;29;20038;-96
2020/12/13 18:41:51;;;;;;;7.35;3.72;;;6.50;99.90;;;;;;4851238;29;20133;-95
2020/12/13 18:44:20;;;;;;;7.47;3.63;;;6.50;99.90;;;;;;4854781;29;20018;-96
2020/12/13 18:46:55;;;;;;;7.97;3.47;;;6.50;99.90;;;;;;4838681;29;20132;-96